Terminal Aerodrome Forecast
Issued by NWS

Home | Current Version | Previous Version | Text Only | Print | Product List | Glossary On
Versions: 1 2 3 4 5 6 7 8 9 10 11 12 13
727
FTUS46 KPDT 252320
TAFDLS
TAF
KDLS 252320Z 2600/2624 31007KT P6SM -SHRA BKN050 OVC080
     FM260600 30008KT P6SM BKN050
     FM261300 30015G25KT P6SM -RA BKN040 OVC050
     FM262000 30020G35KT P6SM SCT050=

USA.gov is the U.S. government's official web portal to all federal, state and local government web resources and services.